createdAt,value
2018-08-21T14:15:06.925Z,165
2018-08-21T14:16:10.676Z,165
2018-08-21T14:17:06.645Z,160
2018-08-21T14:18:06.638Z,160
2018-08-21T14:19:06.383Z,165
2018-08-21T14:20:06.384Z,160
2018-08-21T14:21:06.625Z,160
2018-08-21T14:22:06.641Z,160
2018-08-21T14:23:06.618Z,160
2018-08-21T14:24:06.613Z,160
2018-08-21T14:25:06.614Z,160
2018-08-21T14:26:06.361Z,160
2018-08-21T14:27:06.111Z,160
2018-08-21T14:28:06.561Z,160
2018-08-21T14:29:06.608Z,160
2018-08-21T14:30:06.609Z,160
2018-08-21T14:31:06.599Z,165
2018-08-21T14:32:06.604Z,165
2018-08-21T14:33:06.603Z,170
2018-08-21T14:34:06.704Z,170
2018-08-21T14:35:06.848Z,165
2018-08-21T14:36:06.886Z,165
2018-08-21T14:37:06.620Z,165
2018-08-21T14:38:06.093Z,165
2018-08-21T14:39:07.317Z,165
2018-08-21T14:40:06.852Z,165
2018-08-21T14:41:06.840Z,165
2018-08-21T14:42:06.846Z,170
2018-08-21T14:43:06.087Z,170
2018-08-21T14:44:06.597Z,165
2018-08-21T14:45:06.887Z,165
2018-08-21T14:46:07.370Z,165
2018-08-21T14:47:06.091Z,165
2018-08-21T14:48:06.351Z,165
2018-08-21T14:49:06.590Z,165
2018-08-21T14:50:06.471Z,165
2018-08-21T14:51:06.096Z,165
2018-08-21T14:52:06.336Z,170
2018-08-21T14:53:06.595Z,170
2018-08-21T14:54:06.861Z,170
2018-08-21T14:55:06.666Z,170
2018-08-21T14:56:06.592Z,170
2018-08-21T14:57:06.852Z,170
2018-08-21T14:58:06.696Z,165
2018-08-21T14:59:06.845Z,160
2018-08-21T15:00:06.593Z,165
2018-08-21T15:01:06.592Z,170
2018-08-21T15:02:06.612Z,175
2018-08-21T15:03:06.851Z,180
2018-08-21T15:04:06.593Z,180
2018-08-21T15:05:06.598Z,175
2018-08-21T15:06:06.346Z,170
2018-08-21T15:07:06.847Z,175
2018-08-21T15:08:06.596Z,175
2018-08-21T15:09:06.619Z,180
2018-08-21T15:10:07.005Z,175
2018-08-21T15:11:06.630Z,170
2018-08-21T15:12:06.344Z,165
2018-08-21T15:13:06.598Z,170
2018-08-21T15:14:06.851Z,165
2018-08-21T15:15:06.603Z,160
2018-08-21T15:16:06.848Z,160
2018-08-21T15:17:06.597Z,160
2018-08-21T15:18:06.852Z,160
2018-08-21T15:19:06.097Z,160
2018-08-21T15:20:06.353Z,165
2018-08-21T15:21:06.631Z,165
2018-08-21T15:22:06.960Z,165
2018-08-21T15:23:06.607Z,160
2018-08-21T15:24:06.651Z,160
2018-08-21T15:25:06.353Z,160
2018-08-21T15:26:06.608Z,160
2018-08-21T15:27:06.607Z,160
2018-08-21T15:28:06.612Z,155
2018-08-21T15:29:06.869Z,155
2018-08-21T15:30:06.857Z,155
2018-08-21T15:31:06.863Z,160
2018-08-21T15:32:06.366Z,155
2018-08-21T15:33:06.998Z,155
2018-08-21T15:34:06.353Z,155
2018-08-21T15:35:06.868Z,155
2018-08-21T15:36:06.636Z,155
2018-08-21T15:37:06.638Z,155
2018-08-21T15:38:06.647Z,150
2018-08-21T15:39:06.954Z,155
2018-08-21T15:40:08.014Z,155
2018-08-21T15:42:32.420Z,150
2018-08-21T15:43:31.420Z,150
2018-08-21T15:44:29.965Z,150
2018-08-21T15:45:30.042Z,150
2018-08-21T15:46:30.242Z,150
2018-08-21T15:47:29.284Z,150
2018-08-21T15:48:29.626Z,150
2018-08-21T15:49:29.820Z,145
2018-08-21T15:50:30.037Z,145
2018-08-21T15:51:29.529Z,145
2018-08-21T15:52:30.096Z,145
2018-08-21T15:53:29.784Z,145
2018-08-21T15:54:30.071Z,145
2018-08-21T15:55:30.031Z,145
2018-08-21T15:56:30.037Z,145
2018-08-21T15:57:29.531Z,145
2018-08-21T15:58:30.200Z,145
2018-08-21T15:59:30.060Z,145
2018-08-21T16:00:29.538Z,145
2018-08-21T16:01:30.203Z,140
2018-08-21T16:02:30.068Z,140
2018-08-21T16:03:30.031Z,140
2018-08-21T16:04:29.789Z,140
2018-08-21T16:05:30.045Z,140
2018-08-21T16:06:29.526Z,140
2018-08-21T16:07:30.176Z,140
2018-08-21T16:08:29.541Z,140
2018-08-21T16:09:29.650Z,140
2018-08-21T16:10:30.033Z,140
2018-08-21T16:11:30.993Z,135
2018-08-21T16:12:30.537Z,135
2018-08-21T16:13:30.036Z,135
2018-08-21T16:14:29.781Z,135
2018-08-21T16:15:30.044Z,135
2018-08-21T16:16:29.533Z,135
2018-08-21T16:17:29.699Z,135
2018-08-21T16:18:29.789Z,135
2018-08-21T16:19:30.054Z,130
2018-08-21T16:20:29.780Z,130
2018-08-21T16:21:29.782Z,130
2018-08-21T16:22:29.778Z,130
2018-08-21T16:23:29.789Z,130
2018-08-21T16:24:29.777Z,130
2018-08-21T16:25:29.587Z,130
2018-08-21T16:26:29.777Z,130
2018-08-21T16:27:30.199Z,125
2018-08-21T16:28:30.040Z,125
2018-08-21T16:29:29.525Z,125
2018-08-21T16:30:29.783Z,125
2018-08-21T16:31:29.790Z,125
2018-08-21T16:32:30.384Z,125
2018-08-21T16:33:30.821Z,125
2018-08-21T16:34:29.772Z,125
2018-08-21T16:35:29.802Z,120
2018-08-21T16:36:30.032Z,120
2018-08-21T16:37:29.774Z,120
2018-08-21T16:38:30.236Z,120
2018-08-21T16:39:31.012Z,120
2018-08-21T16:40:32.344Z,120
2018-08-21T16:41:29.911Z,120
2018-08-21T16:42:30.034Z,115
2018-08-21T16:43:30.069Z,115
2018-08-21T16:44:30.020Z,115
2018-08-21T16:45:29.802Z,115
2018-08-21T16:46:30.524Z,115
2018-08-21T16:47:29.516Z,110
2018-08-21T16:48:30.064Z,110
2018-08-21T16:49:29.774Z,110
2018-08-21T16:50:30.261Z,110
2018-08-21T16:51:29.262Z,110
2018-08-21T16:52:29.261Z,110
2018-08-21T16:53:30.032Z,105
2018-08-21T16:54:30.019Z,105
2018-08-21T16:55:29.513Z,105
2018-08-21T16:56:30.013Z,105
2018-08-21T16:57:29.258Z,105
2018-08-21T16:58:30.012Z,105
2018-08-21T16:59:29.760Z,100
2018-08-21T17:00:30.084Z,100
2018-08-21T17:01:30.527Z,100
2018-08-21T17:02:29.763Z,100
2018-08-21T17:03:29.762Z,100
2018-08-21T17:04:29.502Z,100
2018-08-21T17:05:30.006Z,95
2018-08-21T17:06:29.503Z,95
2018-08-21T17:07:29.753Z,95
2018-08-21T17:08:29.756Z,95
2018-08-21T17:09:30.020Z,90
2018-08-21T17:10:29.904Z,90
2018-08-21T17:11:29.752Z,90
2018-08-21T17:12:29.499Z,90
2018-08-21T17:13:30.044Z,90
2018-08-21T17:14:29.793Z,85
2018-08-21T17:15:29.746Z,85
2018-08-21T17:16:29.996Z,85
2018-08-21T17:17:29.742Z,85
2018-08-21T17:18:30.003Z,80
2018-08-21T17:19:29.743Z,80
2018-08-21T17:20:30.273Z,80
2018-08-21T17:21:30.079Z,80
2018-08-21T17:22:29.490Z,75
2018-08-21T17:23:29.991Z,75
2018-08-21T17:24:29.996Z,75
2018-08-21T17:25:29.989Z,75
2018-08-21T17:26:29.735Z,70
2018-08-21T17:27:29.981Z,70
2018-08-21T17:28:29.980Z,70
2018-08-21T17:29:29.982Z,70
2018-08-21T17:30:29.730Z,65
2018-08-21T17:31:29.722Z,65
2018-08-21T17:32:29.738Z,65
2018-08-21T17:33:29.727Z,65
2018-08-21T17:34:29.719Z,60
2018-08-21T17:35:29.975Z,60
2018-08-21T17:36:29.982Z,60
2018-08-21T17:37:29.723Z,55
2018-08-21T17:38:29.462Z,55
2018-08-21T17:39:29.965Z,55
2018-08-21T17:40:29.902Z,55
2018-08-21T17:41:29.962Z,50
2018-08-21T17:42:29.493Z,50
2018-08-21T17:43:29.708Z,50
2018-08-21T17:44:29.715Z,50
2018-08-21T17:45:29.956Z,45
2018-08-21T17:46:29.953Z,45
2018-08-21T17:47:30.006Z,45
2018-08-21T17:48:29.706Z,40
2018-08-21T17:49:29.955Z,40
2018-08-21T17:50:29.452Z,40
2018-08-21T17:51:29.950Z,40
2018-08-21T17:52:29.694Z,35
2018-08-21T17:53:29.941Z,35
2018-08-21T17:54:29.736Z,35
2018-08-21T17:55:29.939Z,30
2018-08-21T17:56:29.696Z,30
2018-08-21T17:57:29.941Z,30
2018-08-21T17:58:29.944Z,30
2018-08-21T17:59:30.062Z,25
2018-08-21T18:00:29.430Z,25
2018-08-21T18:01:29.683Z,25
2018-08-21T18:02:29.425Z,25
2018-08-21T18:03:29.926Z,20
2018-08-21T18:04:29.928Z,20
2018-08-21T18:05:30.166Z,20
2018-08-21T18:06:29.420Z,20
2018-08-21T18:07:29.420Z,15
2018-08-21T18:08:29.921Z,15
2018-08-21T18:09:29.723Z,15
2018-08-21T18:10:29.408Z,15
2018-08-21T18:11:29.908Z,15
2018-08-21T18:12:29.905Z,10
2018-08-21T18:13:29.401Z,10
2018-08-21T18:14:29.398Z,10
2018-08-21T18:15:29.400Z,10
2018-08-21T18:16:29.645Z,10
2018-08-21T18:17:29.896Z,5
2018-08-21T18:18:29.640Z,5
2018-08-21T18:19:29.924Z,5
2018-08-21T18:20:29.384Z,5
2018-08-21T18:21:28.885Z,5
2018-08-21T18:22:29.644Z,5
2018-08-21T18:23:29.883Z,5
2018-08-21T18:24:29.876Z,5
2018-08-21T18:25:29.632Z,0
2018-08-21T18:26:29.624Z,0
2018-08-21T18:27:29.627Z,0
2018-08-21T18:28:29.881Z,0
2018-08-21T18:29:29.863Z,0
2018-08-21T18:30:29.866Z,0
2018-08-21T18:31:29.612Z,0
2018-08-21T18:32:29.606Z,0
2018-08-21T18:33:29.864Z,0
2018-08-21T18:34:29.347Z,0
2018-08-21T18:35:30.247Z,0
2018-08-21T18:36:29.688Z,0
2018-08-21T18:37:30.103Z,0
2018-08-21T18:38:29.839Z,0
2018-08-21T18:39:29.588Z,0
2018-08-21T18:40:29.838Z,0
2018-08-21T18:41:29.334Z,0
2018-08-21T18:42:29.584Z,0
2018-08-21T18:43:29.611Z,0
2018-08-21T18:44:29.842Z,0
2018-08-21T18:45:29.828Z,0
2018-08-21T18:46:29.831Z,0
2018-08-21T18:47:29.568Z,0
2018-08-21T18:48:29.809Z,0
2018-08-21T18:49:29.842Z,0
2018-08-21T18:50:30.057Z,0
2018-08-21T18:51:29.805Z,0
2018-08-21T18:52:29.300Z,0
2018-08-21T18:53:29.596Z,0
2018-08-21T18:54:29.789Z,0
2018-08-21T18:55:29.794Z,0
2018-08-21T18:56:29.538Z,0
2018-08-21T18:57:29.582Z,0
2018-08-21T18:58:29.536Z,0
2018-08-21T18:59:29.528Z,0
2018-08-21T19:00:29.774Z,0
2018-08-21T19:01:29.817Z,0
2018-08-21T19:02:29.763Z,0
2018-08-21T19:03:29.513Z,0
2018-08-21T19:04:29.926Z,0
2018-08-21T19:05:29.256Z,0
2018-08-21T19:06:29.750Z,0
2018-08-21T19:07:29.252Z,0
2018-08-21T19:08:29.487Z,0
2018-08-21T19:09:29.233Z,0
2018-08-21T19:10:29.736Z,0
2018-08-21T19:11:29.476Z,0
2018-08-21T19:12:29.730Z,0
2018-08-21T19:13:29.476Z,0
2018-08-21T19:14:29.482Z,0
2018-08-21T19:15:29.715Z,0
2018-08-21T19:16:29.212Z,0
2018-08-21T19:17:29.708Z,0
2018-08-21T19:18:29.702Z,0
2018-08-21T19:19:29.199Z,0
2018-08-21T19:20:29.240Z,0
2018-08-21T19:21:29.444Z,0
2018-08-21T19:22:29.687Z,0
2018-08-21T19:23:29.439Z,0
2018-08-21T19:24:29.181Z,0
2018-08-21T19:25:29.424Z,0
2018-08-21T19:26:29.170Z,0
2018-08-21T19:27:29.681Z,0
2018-08-21T19:28:29.672Z,0
2018-08-21T19:29:29.410Z,0
2018-08-21T19:30:29.664Z,0
2018-08-21T19:31:29.154Z,0
2018-08-21T19:32:29.706Z,0
2018-08-21T19:33:29.393Z,0
2018-08-21T19:34:29.655Z,0
2018-08-21T19:35:29.386Z,0
2018-08-21T19:36:29.387Z,0
2018-08-21T19:37:29.626Z,0
2018-08-21T19:38:29.124Z,0
2018-08-21T19:39:29.124Z,0
2018-08-21T19:40:29.368Z,0
2018-08-21T19:41:29.795Z,0
2018-08-21T19:42:29.358Z,0
2018-08-21T19:43:29.618Z,0
2018-08-21T19:44:29.095Z,0
2018-08-21T19:45:29.347Z,0
2018-08-21T19:46:29.339Z,0
2018-08-21T19:47:29.878Z,0
2018-08-21T19:48:29.587Z,0
2018-08-21T19:49:29.583Z,0
2018-08-21T19:50:29.334Z,0
2018-08-21T19:51:29.576Z,0
2018-08-21T19:52:29.580Z,0
2018-08-21T19:53:29.560Z,0
2018-08-21T19:54:29.571Z,0
2018-08-21T19:55:29.049Z,0
2018-08-21T19:56:29.303Z,0
2018-08-21T19:57:29.296Z,0
2018-08-21T19:58:29.641Z,0
2018-08-21T19:59:29.034Z,0
2018-08-21T20:00:29.581Z,0
2018-08-21T20:01:29.275Z,0
2018-08-21T20:02:29.525Z,0
2018-08-21T20:03:29.522Z,0
2018-08-21T20:04:29.263Z,0
2018-08-21T20:05:29.258Z,0
2018-08-21T20:06:29.000Z,0
2018-08-21T20:07:28.995Z,0
2018-08-21T20:08:29.495Z,0
2018-08-21T20:09:29.238Z,0
2018-08-21T20:10:29.277Z,0
2018-08-21T20:11:29.231Z,0
2018-08-21T20:12:29.492Z,0
2018-08-21T20:13:29.222Z,0
2018-08-21T20:14:29.229Z,0
2018-08-21T20:15:29.473Z,0
2018-08-21T20:16:29.461Z,0
2018-08-21T20:17:29.452Z,0
2018-08-21T20:18:29.206Z,0
2018-08-21T20:19:29.842Z,0
2018-08-21T20:20:29.449Z,0
2018-08-21T20:21:29.187Z,0
2018-08-21T20:22:29.430Z,0
2018-08-21T20:23:29.424Z,0
2018-08-21T20:24:28.916Z,0
2018-08-21T20:25:29.422Z,0
2018-08-21T20:26:29.415Z,0
2018-08-21T20:27:29.407Z,0
2018-08-21T20:28:29.153Z,0
2018-08-21T20:29:29.394Z,0
2018-08-21T20:30:29.396Z,0
2018-08-21T20:31:29.145Z,0
2018-08-21T20:32:29.134Z,0
2018-08-21T20:33:29.380Z,0
2018-08-21T20:34:29.125Z,0
2018-08-21T20:35:29.369Z,0
2018-08-21T20:36:29.383Z,0
2018-08-21T20:37:28.857Z,0
2018-08-21T20:38:28.851Z,0
2018-08-21T20:39:28.847Z,0
2018-08-21T20:40:29.349Z,0
2018-08-21T20:41:29.087Z,0
2018-08-21T20:42:28.834Z,0
2018-08-21T20:43:29.340Z,0
2018-08-21T20:44:28.821Z,0
2018-08-21T20:45:28.815Z,0
2018-08-21T20:46:29.317Z,0
2018-08-21T20:47:29.071Z,0
2018-08-21T20:48:29.052Z,0
2018-08-21T20:49:29.307Z,0
2018-08-21T20:50:28.792Z,0
2018-08-21T20:51:29.043Z,0
2018-08-21T20:52:29.036Z,0
2018-08-21T20:53:29.278Z,0
2018-08-21T20:54:28.772Z,0
2018-08-21T20:55:29.327Z,0
2018-08-21T20:56:29.266Z,0
2018-08-21T20:57:29.011Z,0
2018-08-21T20:58:29.256Z,0
2018-08-21T20:59:28.757Z,0
2018-08-21T21:00:29.254Z,0
2018-08-21T21:01:28.988Z,0
2018-08-21T21:02:29.242Z,0
2018-08-21T21:03:29.228Z,0
2018-08-21T21:04:28.879Z,0
2018-08-21T21:05:28.972Z,0
2018-08-21T21:06:28.962Z,0
2018-08-21T21:07:28.965Z,0
2018-08-21T21:08:29.203Z,0
2018-08-21T21:09:29.204Z,0
2018-08-21T21:10:29.583Z,0
2018-08-21T21:11:29.196Z,0
2018-08-21T21:12:28.955Z,0
2018-08-21T21:13:28.935Z,0
2018-08-21T21:14:28.936Z,0
2018-08-21T21:15:28.672Z,0
2018-08-21T21:16:29.072Z,0
2018-08-21T21:17:29.159Z,0
2018-08-21T21:18:28.657Z,0
2018-08-21T21:19:28.899Z,0
2018-08-21T21:20:28.644Z,0
2018-08-21T21:21:29.139Z,0
2018-08-21T21:22:29.143Z,0
2018-08-21T21:23:28.371Z,0
2018-08-21T21:24:29.134Z,0
2018-08-21T21:25:28.866Z,0
2018-08-21T21:26:28.625Z,0
2018-08-21T21:27:29.112Z,0
2018-08-21T21:28:28.852Z,0
2018-08-21T21:29:28.857Z,0
2018-08-21T21:30:29.093Z,0
2018-08-21T21:31:29.098Z,0
2018-08-21T21:32:28.831Z,0
2018-08-21T21:33:28.833Z,0
2018-08-21T21:34:29.073Z,0
2018-08-21T21:35:28.816Z,0
2018-08-21T21:36:29.174Z,0
2018-08-21T21:37:29.076Z,0
2018-08-21T21:38:28.803Z,0
2018-08-21T21:39:28.792Z,0
2018-08-21T21:40:29.038Z,0
2018-08-21T21:41:29.032Z,0
2018-08-21T21:42:29.033Z,0
2018-08-21T21:43:29.037Z,0
2018-08-21T21:44:28.778Z,0
2018-08-21T21:45:29.010Z,0
2018-08-21T21:46:29.535Z,0
2018-08-21T21:47:29.009Z,0
2018-08-21T21:50:28.978Z,0
2018-08-21T21:51:28.977Z,0
2018-08-21T21:52:28.974Z,0
2018-08-21T21:53:28.964Z,0
2018-08-21T21:54:28.959Z,0
2018-08-21T21:55:28.810Z,0
2018-08-21T21:56:28.193Z,0
2018-08-21T21:57:28.439Z,0
2018-08-21T21:58:28.429Z,0
2018-08-21T21:59:28.676Z,0
2018-08-21T22:00:28.933Z,0
2018-08-21T22:01:28.666Z,0
2018-08-21T22:02:28.406Z,0
2018-08-21T22:03:28.650Z,0
2018-08-21T22:04:28.655Z,0
2018-08-21T22:05:28.643Z,0
2018-08-21T22:06:28.641Z,0
2018-08-21T22:07:28.628Z,0
2018-08-21T22:08:28.877Z,0
2018-08-21T22:09:28.373Z,0
2018-08-21T22:10:28.613Z,0
2018-08-21T22:11:28.859Z,0
2018-08-21T22:12:28.854Z,0
2018-08-21T22:13:28.848Z,0
2018-08-21T22:14:28.345Z,0
2018-08-21T22:15:28.842Z,0
2018-08-21T22:16:28.828Z,0
2018-08-21T22:17:28.614Z,0
2018-08-21T22:18:28.817Z,0
2018-08-21T22:19:28.561Z,0
2018-08-21T22:20:28.561Z,0
2018-08-21T22:21:28.298Z,0
2018-08-21T22:22:28.807Z,0
2018-08-21T22:23:28.538Z,0
2018-08-21T22:24:28.531Z,0
2018-08-21T22:25:28.776Z,0
2018-08-21T22:26:28.779Z,0
2018-08-21T22:27:28.514Z,0
2018-08-21T22:28:28.512Z,0
2018-08-21T22:29:28.948Z,0
2018-08-21T22:30:28.751Z,0
2018-08-21T22:31:28.741Z,0
2018-08-21T22:32:28.739Z,0
2018-08-21T22:33:28.732Z,0
2018-08-21T22:34:28.730Z,0
2018-08-21T22:35:28.730Z,0
2018-08-21T22:36:28.467Z,0
2018-08-21T22:37:28.458Z,0
2018-08-21T22:38:28.456Z,0
2018-08-21T22:39:28.198Z,0
2018-08-21T22:40:28.446Z,0
2018-08-21T22:41:28.696Z,0
2018-08-21T22:42:28.680Z,0
2018-08-21T22:43:28.670Z,0
2018-08-21T22:44:28.673Z,0
2018-08-21T22:45:28.674Z,0
2018-08-21T22:46:28.159Z,0
2018-08-21T22:47:28.146Z,0
2018-08-21T22:48:28.644Z,0
2018-08-21T22:49:28.388Z,0
2018-08-21T22:50:28.134Z,0
2018-08-21T22:51:28.380Z,0
2018-08-21T22:52:28.370Z,0
2018-08-21T22:53:28.369Z,0
2018-08-21T22:54:28.358Z,0
2018-08-21T22:55:28.614Z,0
2018-08-21T22:56:28.351Z,0
2018-08-21T22:57:28.589Z,0
2018-08-21T22:58:28.336Z,0
2018-08-21T22:59:28.330Z,0
2018-08-21T23:00:28.072Z,0
2018-08-21T23:01:28.575Z,0
2018-08-21T23:02:28.314Z,0
2018-08-21T23:03:28.305Z,0
2018-08-21T23:04:28.300Z,0
2018-08-21T23:05:28.050Z,0
2018-08-21T23:06:28.546Z,0
2018-08-21T23:07:28.287Z,0
2018-08-21T23:08:28.526Z,0
2018-08-21T23:09:28.522Z,0
2018-08-21T23:10:28.262Z,0
2018-08-21T23:11:28.513Z,0
2018-08-21T23:12:28.289Z,0
2018-08-21T23:13:28.495Z,0
2018-08-21T23:14:28.247Z,0
2018-08-21T23:15:28.491Z,0
2018-08-21T23:16:28.484Z,0
2018-08-21T23:17:28.219Z,0
2018-08-21T23:18:28.214Z,0
2018-08-21T23:19:27.958Z,0
2018-08-21T23:20:27.948Z,0
2018-08-21T23:21:28.451Z,0
2018-08-21T23:22:28.453Z,0
2018-08-21T23:23:28.483Z,0
2018-08-21T23:24:28.433Z,0
2018-08-21T23:25:28.222Z,0
2018-08-21T23:26:28.420Z,0
2018-08-21T23:27:28.408Z,0
2018-08-21T23:28:27.905Z,0
2018-08-21T23:29:28.400Z,0
2018-08-21T23:30:28.396Z,0
2018-08-21T23:31:28.386Z,0
2018-08-21T23:32:28.417Z,0
2018-08-21T23:33:28.126Z,0
2018-08-21T23:34:28.472Z,0
2018-08-21T23:35:28.111Z,0
2018-08-21T23:36:28.106Z,0
2018-08-21T23:37:28.108Z,0
2018-08-21T23:38:28.130Z,0
2018-08-21T23:39:28.340Z,0
2018-08-21T23:40:28.353Z,0
2018-08-21T23:41:28.073Z,0
2018-08-21T23:42:28.319Z,0
2018-08-21T23:43:28.310Z,0
2018-08-21T23:44:28.056Z,0
2018-08-21T23:45:27.803Z,0
2018-08-21T23:46:28.289Z,0
2018-08-21T23:47:28.295Z,0
2018-08-21T23:48:28.285Z,0
2018-08-21T23:49:28.287Z,0
2018-08-21T23:50:27.768Z,0
2018-08-21T23:51:28.270Z,0
2018-08-21T23:52:28.256Z,0
2018-08-21T23:53:27.999Z,0
2018-08-21T23:54:27.993Z,0
2018-08-21T23:55:27.741Z,0
2018-08-21T23:56:28.235Z,0
2018-08-21T23:57:27.978Z,0
2018-08-21T23:58:27.968Z,0
2018-08-21T23:59:27.968Z,0
